Harmony G — SX8625 — position and weather

sailwx.info

Track history (hours):
 
Tides and Currents Weather Stations Pressure Air Temp Water Temp Dewpoint Dewpoint Depression Visibility Wind Speed Wind Dir Waves Ship Positions

Harmony G

Last reported at 2017-Dec-16 10:10 UTC. Time now 2018-Jan-22 00:15 UTC.
Position N 35°58' W 005°20'.
Warning: this ship's position is 36 days out of date.

Length 53 m; draft 2.8 m.

Type: Passenger vessel. MMSI: 239780000.

Date/timePositionNaut miles runAvg speedWind from/ knotsBaromVisibWave heightAir tempDewpointWater temp
2017-Dec-16 10:10N 35°58' W 005°20'1 8.9
2017-Dec-16 10:00N 35°57' W 005°20'3 6.4
2017-Dec-16 09:30N 35°54' W 005°19'0 0.0
2017-Dec-16 09:00N 35°54' W 005°19'0 0.0
2017-Dec-16 08:30N 35°54' W 005°19'0 0.0
2017-Dec-16 08:00N 35°54' W 005°19'0 0.0
2017-Dec-16 07:30N 35°54' W 005°19'0 0.0
2017-Dec-16 07:00N 35°54' W 005°19'0 0.0
2017-Dec-16 06:30N 35°54' W 005°19'0 0.0
2017-Dec-16 06:00N 35°54' W 005°19'0 0.9
2017-Dec-16 05:30N 35°54' W 005°19'1 2.0
2017-Dec-16 05:00N 35°55' W 005°19'1 1.8
2017-Dec-16 04:30N 35°56' W 005°18'  
2017-Dec-13 23:18N 37°05' E 002°17'3 8.7
2017-Dec-13 23:00N 37°05' E 002°20'4 8.6
2017-Dec-13 22:30N 37°06' E 002°26'4 8.7
2017-Dec-13 22:00N 37°06' E 002°31'4 8.8
2017-Dec-13 21:30N 37°06' E 002°37'  
2017-Dec-10 20:57N 35°45' E 014°12'4 9.1
2017-Dec-10 20:29N 35°44' E 014°18'4 9.0
2017-Dec-10 20:00N 35°44' E 014°23'13 5.8
2017-Dec-10 17:48N 35°54' E 014°33'1 0.0
2017-Dec-08 20:23N 35°54' E 014°32'2 6.0
2017-Dec-08 19:59N 35°55' E 014°35'  
Track history (hours):
 
Tides and Currents Weather Stations Pressure Air Temp Water Temp Dewpoint Dewpoint Depression Visibility Wind Speed Wind Dir Waves Ship Positions

Harmony G

Last reported at 2017-Dec-16 10:10 UTC. Time now 2018-Jan-22 00:15 UTC.
Position N 35°58' W 005°20'.
Warning: this ship's position is 36 days out of date.

Length 53 m; draft 2.8 m.

Type: Passenger vessel. MMSI: 239780000.

Date/timePositionNaut miles runAvg speedWind from/ knotsBaromVisibWave heightAir tempDewpointWater temp
2017-Dec-16 10:10N 35°58' W 005°20'1 8.9
2017-Dec-16 10:00N 35°57' W 005°20'3 6.4
2017-Dec-16 09:30N 35°54' W 005°19'0 0.0
2017-Dec-16 09:00N 35°54' W 005°19'0 0.0
2017-Dec-16 08:30N 35°54' W 005°19'0 0.0
2017-Dec-16 08:00N 35°54' W 005°19'0 0.0
2017-Dec-16 07:30N 35°54' W 005°19'0 0.0
2017-Dec-16 07:00N 35°54' W 005°19'0 0.0
2017-Dec-16 06:30N 35°54' W 005°19'0 0.0
2017-Dec-16 06:00N 35°54' W 005°19'0 0.9
2017-Dec-16 05:30N 35°54' W 005°19'1 2.0
2017-Dec-16 05:00N 35°55' W 005°19'1 1.8
2017-Dec-16 04:30N 35°56' W 005°18'  
2017-Dec-13 23:18N 37°05' E 002°17'3 8.7
2017-Dec-13 23:00N 37°05' E 002°20'4 8.6
2017-Dec-13 22:30N 37°06' E 002°26'4 8.7
2017-Dec-13 22:00N 37°06' E 002°31'4 8.8
2017-Dec-13 21:30N 37°06' E 002°37'  
2017-Dec-10 20:57N 35°45' E 014°12'4 9.1
2017-Dec-10 20:29N 35°44' E 014°18'4 9.0
2017-Dec-10 20:00N 35°44' E 014°23'13 5.8
2017-Dec-10 17:48N 35°54' E 014°33'1 0.0
2017-Dec-08 20:23N 35°54' E 014°32'2 6.0
2017-Dec-08 19:59N 35°55' E 014°35'  

Dump ship's entire track history